TimeAKDT,TemperatureF,Dew PointF,Humidity,Sea Level PressureIn,VisibilityMPH,Wind Direction,Wind SpeedMPH,Gust SpeedMPH,PrecipitationIn,Events,Conditions,WindDirDegrees,DateUTC
12:26 AM,44.6,44.6,100,29.91,10.0,Calm,Calm,-,0.01,Rain,Light Rain,0,2013-05-15 08:26:00
12:53 AM,46.0,44.1,93,29.90,10.0,WNW,5.8,-,0.01,,Overcast,300,2013-05-15 08:53:00
1:53 AM,46.0,44.1,93,29.90,10.0,Calm,Calm,-,0.00,Rain,Light Rain,0,2013-05-15 09:53:00
2:53 AM,45.0,45.0,100,29.91,8.0,Calm,Calm,-,0.02,Rain,Light Rain,0,2013-05-15 10:53:00
3:53 AM,45.0,45.0,100,29.90,10.0,Calm,Calm,-,0.04,Rain,Light Rain,0,2013-05-15 11:53:00
4:53 AM,45.0,45.0,100,29.90,10.0,Calm,Calm,-,0.03,Rain,Light Rain,0,2013-05-15 12:53:00
5:28 AM,46.4,44.6,93,29.89,5.0,Calm,Calm,-,0.01,Rain,Light Rain,0,2013-05-15 13:28:00
5:53 AM,46.0,45.0,96,29.90,7.0,Calm,Calm,-,0.02,Rain,Light Rain,0,2013-05-15 13:53:00
5:55 AM,46.4,44.6,93,29.90,7.0,Calm,Calm,-,0.00,Rain,Light Rain,0,2013-05-15 13:55:00
6:53 AM,46.9,45.0,93,29.91,10.0,Calm,Calm,-,0.02,Rain,Light Rain,0,2013-05-15 14:53:00
7:25 AM,46.4,46.4,100,29.91,4.0,Calm,Calm,-,0.01,Rain,Light Rain,0,2013-05-15 15:25:00
7:53 AM,46.9,46.0,97,29.92,3.0,Calm,Calm,-,0.02,,Overcast,0,2013-05-15 15:53:00
8:53 AM,48.0,46.9,96,29.93,3.0,Calm,Calm,-,0.01,Rain,Light Rain,0,2013-05-15 16:53:00
9:53 AM,48.9,46.9,93,29.94,4.0,SE,3.5,-,0.02,,Overcast,140,2013-05-15 17:53:00
10:53 AM,50.0,48.0,93,29.96,5.0,SSE,9.2,-,N/A,,Overcast,150,2013-05-15 18:53:00
11:53 AM,50.0,48.0,93,29.97,4.0,SSE,8.1,-,N/A,,Overcast,150,2013-05-15 19:53:00
12:53 PM,50.0,48.0,93,29.98,5.0,SE,11.5,-,N/A,,Overcast,140,2013-05-15 20:53:00
1:53 PM,50.0,48.9,96,29.99,4.0,SE,9.2,-,N/A,,Overcast,140,2013-05-15 21:53:00
2:53 PM,51.1,50.0,96,30.00,5.0,ESE,11.5,-,N/A,,Overcast,120,2013-05-15 22:53:00
3:53 PM,51.1,50.0,96,30.01,10.0,ESE,10.4,-,N/A,,Overcast,120,2013-05-15 23:53:00
4:53 PM,51.1,48.9,92,30.01,10.0,SE,10.4,-,0.00,,Overcast,130,2013-05-16 00:53:00
5:53 PM,51.1,48.9,92,30.01,10.0,SE,12.7,-,N/A,,Overcast,130,2013-05-16 01:53:00
6:53 PM,50.0,48.0,93,30.02,10.0,ESE,10.4,-,N/A,,Overcast,120,2013-05-16 02:53:00
7:53 PM,48.9,48.0,97,30.02,10.0,SE,10.4,-,N/A,,Overcast,130,2013-05-16 03:53:00
8:53 PM,48.9,48.0,97,30.03,8.0,SE,8.1,-,N/A,,Overcast,140,2013-05-16 04:53:00
9:21 PM,48.2,48.2,100,30.03,4.0,SE,9.2,-,N/A,,Overcast,140,2013-05-16 05:21:00
9:53 PM,48.0,48.0,100,30.04,9.0,SE,9.2,-,N/A,,Overcast,140,2013-05-16 05:53:00
10:53 PM,48.0,48.0,100,30.04,10.0,SSE,6.9,-,N/A,,Overcast,150,2013-05-16 06:53:00
11:02 PM,48.2,48.2,100,30.04,10.0,SSE,4.6,-,N/A,,Overcast,160,2013-05-16 07:02:00
11:39 PM,48.2,46.4,93,30.04,9.0,SSE,4.6,-,0.01,Rain,Light Rain,150,2013-05-16 07:39:00
11:53 PM,48.0,46.9,96,30.04,10.0,SSE,5.8,-,0.01,,Overcast,150,2013-05-16 07:53:00